sensor_id;sensor_type;location;lat;lon;timestamp;temperature;humidity
10980;DHT22;5543;51.734;8.744;2023-04-01T00:00:50;10.00;99.90
10980;DHT22;5543;51.734;8.744;2023-04-01T00:03:18;10.00;99.90
10980;DHT22;5543;51.734;8.744;2023-04-01T00:05:47;10.00;99.90
10980;DHT22;5543;51.734;8.744;2023-04-01T00:08:16;10.00;99.90
10980;DHT22;5543;51.734;8.744;2023-04-01T00:10:46;10.00;99.90
10980;DHT22;5543;51.734;8.744;2023-04-01T00:13:14;10.00;99.90
10980;DHT22;5543;51.734;8.744;2023-04-01T00:15:43;10.00;99.90
10980;DHT22;5543;51.734;8.744;2023-04-01T00:18:12;10.00;99.90
10980;DHT22;5543;51.734;8.744;2023-04-01T00:20:44;10.00;99.90
10980;DHT22;5543;51.734;8.744;2023-04-01T00:23:12;10.30;99.90
10980;DHT22;5543;51.734;8.744;2023-04-01T00:25:41;10.00;99.90
10980;DHT22;5543;51.734;8.744;2023-04-01T00:28:10;10.00;99.90
10980;DHT22;5543;51.734;8.744;2023-04-01T00:30:38;10.20;99.90
10980;DHT22;5543;51.734;8.744;2023-04-01T00:33:06;10.00;99.90
10980;DHT22;5543;51.734;8.744;2023-04-01T00:35:35;10.00;99.90
10980;DHT22;5543;51.734;8.744;2023-04-01T00:38:03;10.10;99.90
10980;DHT22;5543;51.734;8.744;2023-04-01T00:40:33;10.10;99.90
10980;DHT22;5543;51.734;8.744;2023-04-01T00:43:01;10.10;99.90
10980;DHT22;5543;51.734;8.744;2023-04-01T00:45:33;10.10;99.90
10980;DHT22;5543;51.734;8.744;2023-04-01T00:48:04;10.10;99.90
10980;DHT22;5543;51.734;8.744;2023-04-01T00:50:34;10.10;99.90
10980;DHT22;5543;51.734;8.744;2023-04-01T00:53:03;10.10;99.90
10980;DHT22;5543;51.734;8.744;2023-04-01T00:55:36;10.10;99.90
10980;DHT22;5543;51.734;8.744;2023-04-01T00:58:08;10.10;99.90
10980;DHT22;5543;51.734;8.744;2023-04-01T01:00:40;10.10;99.90
10980;DHT22;5543;51.734;8.744;2023-04-01T01:03:09;10.10;99.90
10980;DHT22;5543;51.734;8.744;2023-04-01T01:05:47;10.10;99.90
10980;DHT22;5543;51.734;8.744;2023-04-01T01:08:28;10.10;99.90
10980;DHT22;5543;51.734;8.744;2023-04-01T01:11:00;10.10;99.90
10980;DHT22;5543;51.734;8.744;2023-04-01T01:13:32;10.20;99.90
10980;DHT22;5543;51.734;8.744;2023-04-01T01:16:07;10.10;99.90
10980;DHT22;5543;51.734;8.744;2023-04-01T01:18:42;10.20;99.90
10980;DHT22;5543;51.734;8.744;2023-04-01T01:21:23;10.20;99.90
10980;DHT22;5543;51.734;8.744;2023-04-01T01:24:22;10.10;99.90
10980;DHT22;5543;51.734;8.744;2023-04-01T01:27:03;10.10;99.90
10980;DHT22;5543;51.734;8.744;2023-04-01T01:30:03;10.10;99.90
10980;DHT22;5543;51.734;8.744;2023-04-01T01:32:50;10.10;99.90
10980;DHT22;5543;51.734;8.744;2023-04-01T01:35:26;10.10;99.90
10980;DHT22;5543;51.734;8.744;2023-04-01T01:37:59;10.10;99.90
10980;DHT22;5543;51.734;8.744;2023-04-01T01:40:29;10.00;99.90
10980;DHT22;5543;51.734;8.744;2023-04-01T01:43:02;10.00;99.90
10980;DHT22;5543;51.734;8.744;2023-04-01T01:45:34;10.00;99.90
10980;DHT22;5543;51.734;8.744;2023-04-01T01:48:04;9.90;99.90
10980;DHT22;5543;51.734;8.744;2023-04-01T01:50:34;9.90;99.90
10980;DHT22;5543;51.734;8.744;2023-04-01T01:53:04;9.80;99.90
10980;DHT22;5543;51.734;8.744;2023-04-01T01:55:35;9.70;99.90
10980;DHT22;5543;51.734;8.744;2023-04-01T01:58:09;9.70;99.90
10980;DHT22;5543;51.734;8.744;2023-04-01T02:00:41;9.70;99.90
10980;DHT22;5543;51.734;8.744;2023-04-01T02:03:12;9.70;99.90
10980;DHT22;5543;51.734;8.744;2023-04-01T02:05:42;9.60;99.90
10980;DHT22;5543;51.734;8.744;2023-04-01T02:08:14;9.60;99.90
10980;DHT22;5543;51.734;8.744;2023-04-01T02:10:47;9.60;99.90
10980;DHT22;5543;51.734;8.744;2023-04-01T02:13:20;9.60;99.90
10980;DHT22;5543;51.734;8.744;2023-04-01T02:15:53;9.60;99.90
10980;DHT22;5543;51.734;8.744;2023-04-01T02:18:23;9.60;99.90
10980;DHT22;5543;51.734;8.744;2023-04-01T02:20:53;9.60;99.90
10980;DHT22;5543;51.734;8.744;2023-04-01T02:23:22;9.60;99.90
10980;DHT22;5543;51.734;8.744;2023-04-01T02:25:51;9.40;99.90
10980;DHT22;5543;51.734;8.744;2023-04-01T02:28:19;9.70;99.90
10980;DHT22;5543;51.734;8.744;2023-04-01T02:30:47;9.60;99.90
10980;DHT22;5543;51.734;8.744;2023-04-01T02:33:17;9.70;99.90
10980;DHT22;5543;51.734;8.744;2023-04-01T02:35:46;9.70;99.90
10980;DHT22;5543;51.734;8.744;2023-04-01T02:38:16;9.70;99.90
10980;DHT22;5543;51.734;8.744;2023-04-01T02:40:47;9.70;99.90
10980;DHT22;5543;51.734;8.744;2023-04-01T02:43:16;9.70;99.90
10980;DHT22;5543;51.734;8.744;2023-04-01T02:45:45;9.60;99.90
10980;DHT22;5543;51.734;8.744;2023-04-01T02:48:13;9.90;99.90
10980;DHT22;5543;51.734;8.744;2023-04-01T02:50:41;9.80;99.90
10980;DHT22;5543;51.734;8.744;2023-04-01T02:53:09;9.80;99.90
10980;DHT22;5543;51.734;8.744;2023-04-01T02:55:40;9.80;99.90
10980;DHT22;5543;51.734;8.744;2023-04-01T02:58:08;9.90;99.90
10980;DHT22;5543;51.734;8.744;2023-04-01T03:00:36;9.90;99.90
10980;DHT22;5543;51.734;8.744;2023-04-01T03:03:04;9.80;99.90
10980;DHT22;5543;51.734;8.744;2023-04-01T03:05:32;9.80;99.90
10980;DHT22;5543;51.734;8.744;2023-04-01T03:08:01;9.70;99.90
10980;DHT22;5543;51.734;8.744;2023-04-01T03:10:29;10.00;99.90
10980;DHT22;5543;51.734;8.744;2023-04-01T03:12:58;9.80;99.90
10980;DHT22;5543;51.734;8.744;2023-04-01T03:15:26;9.80;99.90
10980;DHT22;5543;51.734;8.744;2023-04-01T03:17:58;9.80;99.90
10980;DHT22;5543;51.734;8.744;2023-04-01T03:20:26;9.80;99.90
10980;DHT22;5543;51.734;8.744;2023-04-01T03:22:54;9.80;99.90
10980;DHT22;5543;51.734;8.744;2023-04-01T03:25:22;9.90;99.90
10980;DHT22;5543;51.734;8.744;2023-04-01T03:27:50;9.90;99.90
10980;DHT22;5543;51.734;8.744;2023-04-01T03:30:20;9.90;99.90
10980;DHT22;5543;51.734;8.744;2023-04-01T03:32:48;9.80;99.90
10980;DHT22;5543;51.734;8.744;2023-04-01T03:35:16;9.70;99.90
10980;DHT22;5543;51.734;8.744;2023-04-01T03:37:44;9.80;99.90
10980;DHT22;5543;51.734;8.744;2023-04-01T03:40:12;9.70;99.90
10980;DHT22;5543;51.734;8.744;2023-04-01T03:42:40;9.70;99.90
10980;DHT22;5543;51.734;8.744;2023-04-01T03:45:11;9.70;99.90
10980;DHT22;5543;51.734;8.744;2023-04-01T03:47:41;9.70;99.90
10980;DHT22;5543;51.734;8.744;2023-04-01T03:50:09;9.80;99.90
10980;DHT22;5543;51.734;8.744;2023-04-01T03:52:38;9.70;99.90
10980;DHT22;5543;51.734;8.744;2023-04-01T03:55:07;9.60;99.90
10980;DHT22;5543;51.734;8.744;2023-04-01T03:57:35;9.60;99.90
10980;DHT22;5543;51.734;8.744;2023-04-01T04:00:03;9.60;99.90
10980;DHT22;5543;51.734;8.744;2023-04-01T04:02:32;9.60;99.90
10980;DHT22;5543;51.734;8.744;2023-04-01T04:05:01;9.50;99.90
10980;DHT22;5543;51.734;8.744;2023-04-01T04:07:29;9.50;99.90
10980;DHT22;5543;51.734;8.744;2023-04-01T04:09:57;9.40;99.90
10980;DHT22;5543;51.734;8.744;2023-04-01T04:12:25;9.40;99.90
10980;DHT22;5543;51.734;8.744;2023-04-01T04:14:54;9.40;99.90
10980;DHT22;5543;51.734;8.744;2023-04-01T04:17:22;9.40;99.90
10980;DHT22;5543;51.734;8.744;2023-04-01T04:19:50;9.40;99.90
10980;DHT22;5543;51.734;8.744;2023-04-01T04:22:20;9.30;99.90
10980;DHT22;5543;51.734;8.744;2023-04-01T04:24:48;9.40;99.90
10980;DHT22;5543;51.734;8.744;2023-04-01T04:27:16;9.40;99.90
10980;DHT22;5543;51.734;8.744;2023-04-01T04:29:44;9.40;99.90
10980;DHT22;5543;51.734;8.744;2023-04-01T04:32:12;9.30;99.90
10980;DHT22;5543;51.734;8.744;2023-04-01T04:34:40;9.20;99.90
10980;DHT22;5543;51.734;8.744;2023-04-01T04:37:08;9.50;99.90
10980;DHT22;5543;51.734;8.744;2023-04-01T04:39:37;9.20;99.90
10980;DHT22;5543;51.734;8.744;2023-04-01T04:42:05;9.10;99.90
10980;DHT22;5543;51.734;8.744;2023-04-01T04:44:33;9.20;99.90
10980;DHT22;5543;51.734;8.744;2023-04-01T04:47:01;9.20;99.90
10980;DHT22;5543;51.734;8.744;2023-04-01T04:49:30;9.20;99.90
10980;DHT22;5543;51.734;8.744;2023-04-01T04:51:58;9.20;99.90
10980;DHT22;5543;51.734;8.744;2023-04-01T04:54:26;9.10;99.90
10980;DHT22;5543;51.734;8.744;2023-04-01T04:56:55;9.10;99.90
10980;DHT22;5543;51.734;8.744;2023-04-01T04:59:23;9.10;99.90
10980;DHT22;5543;51.734;8.744;2023-04-01T05:01:51;9.10;99.90
10980;DHT22;5543;51.734;8.744;2023-04-01T05:04:19;9.10;99.90
10980;DHT22;5543;51.734;8.744;2023-04-01T05:06:47;9.20;99.90
10980;DHT22;5543;51.734;8.744;2023-04-01T05:09:16;9.10;99.90
10980;DHT22;5543;51.734;8.744;2023-04-01T05:11:44;9.10;99.90
10980;DHT22;5543;51.734;8.744;2023-04-01T05:14:14;9.00;99.90
10980;DHT22;5543;51.734;8.744;2023-04-01T05:16:42;9.00;99.90
10980;DHT22;5543;51.734;8.744;2023-04-01T05:19:10;9.00;99.90
10980;DHT22;5543;51.734;8.744;2023-04-01T05:21:38;9.00;99.90
10980;DHT22;5543;51.734;8.744;2023-04-01T05:24:07;9.00;99.90
10980;DHT22;5543;51.734;8.744;2023-04-01T05:26:36;9.00;99.90
10980;DHT22;5543;51.734;8.744;2023-04-01T05:29:05;9.00;99.90
10980;DHT22;5543;51.734;8.744;2023-04-01T05:31:34;9.10;99.90
10980;DHT22;5543;51.734;8.744;2023-04-01T05:34:02;9.20;99.90
10980;DHT22;5543;51.734;8.744;2023-04-01T05:36:30;9.10;99.90
10980;DHT22;5543;51.734;8.744;2023-04-01T05:38:58;9.20;99.90
10980;DHT22;5543;51.734;8.744;2023-04-01T05:41:26;9.20;99.90
10980;DHT22;5543;51.734;8.744;2023-04-01T05:43:55;9.20;99.90
10980;DHT22;5543;51.734;8.744;2023-04-01T05:46:23;9.20;99.90
10980;DHT22;5543;51.734;8.744;2023-04-01T05:48:52;9.20;99.90
10980;DHT22;5543;51.734;8.744;2023-04-01T05:51:21;9.20;99.90
10980;DHT22;5543;51.734;8.744;2023-04-01T05:53:49;9.20;99.90
10980;DHT22;5543;51.734;8.744;2023-04-01T05:56:17;9.20;99.90
10980;DHT22;5543;51.734;8.744;2023-04-01T05:58:47;9.30;99.90
10980;DHT22;5543;51.734;8.744;2023-04-01T06:01:18;9.30;99.90
10980;DHT22;5543;51.734;8.744;2023-04-01T06:03:46;9.30;99.90
10980;DHT22;5543;51.734;8.744;2023-04-01T06:06:19;9.20;99.90
10980;DHT22;5543;51.734;8.744;2023-04-01T06:08:51;9.40;99.90
10980;DHT22;5543;51.734;8.744;2023-04-01T06:11:26;9.40;99.90
10980;DHT22;5543;51.734;8.744;2023-04-01T06:14:11;9.50;99.90
10980;DHT22;5543;51.734;8.744;2023-04-01T06:16:52;9.50;99.90
10980;DHT22;5543;51.734;8.744;2023-04-01T06:19:31;9.50;99.90
10980;DHT22;5543;51.734;8.744;2023-04-01T06:31:47;9.50;99.90
10980;DHT22;5543;51.734;8.744;2023-04-01T06:34:34;9.40;99.90
10980;DHT22;5543;51.734;8.744;2023-04-01T06:37:15;9.60;99.90
10980;DHT22;5543;51.734;8.744;2023-04-01T06:42:53;9.40;99.90
10980;DHT22;5543;51.734;8.744;2023-04-01T06:45:34;9.40;99.90
10980;DHT22;5543;51.734;8.744;2023-04-01T06:48:18;9.40;99.90
10980;DHT22;5543;51.734;8.744;2023-04-01T06:50:54;9.40;99.90
10980;DHT22;5543;51.734;8.744;2023-04-01T06:53:31;9.40;99.90
10980;DHT22;5543;51.734;8.744;2023-04-01T06:56:04;9.40;99.90
10980;DHT22;5543;51.734;8.744;2023-04-01T06:58:36;9.40;99.90
10980;DHT22;5543;51.734;8.744;2023-04-01T07:01:09;9.40;99.90
10980;DHT22;5543;51.734;8.744;2023-04-01T07:03:41;9.50;99.90
10980;DHT22;5543;51.734;8.744;2023-04-01T07:06:14;9.50;99.90
10980;DHT22;5543;51.734;8.744;2023-04-01T07:08:45;9.60;99.90
10980;DHT22;5543;51.734;8.744;2023-04-01T07:11:22;9.60;99.90
10980;DHT22;5543;51.734;8.744;2023-04-01T07:13:54;9.80;99.90
10980;DHT22;5543;51.734;8.744;2023-04-01T07:16:27;9.70;99.90
10980;DHT22;5543;51.734;8.744;2023-04-01T07:19:01;9.80;99.90
10980;DHT22;5543;51.734;8.744;2023-04-01T07:21:34;9.80;99.90
10980;DHT22;5543;51.734;8.744;2023-04-01T07:24:10;9.90;99.90
10980;DHT22;5543;51.734;8.744;2023-04-01T07:26:39;10.00;99.90
10980;DHT22;5543;51.734;8.744;2023-04-01T07:29:11;10.10;99.90
10980;DHT22;5543;51.734;8.744;2023-04-01T07:31:50;10.20;99.90
10980;DHT22;5543;51.734;8.744;2023-04-01T07:34:25;10.30;99.90
10980;DHT22;5543;51.734;8.744;2023-04-01T07:36:57;10.40;99.90
10980;DHT22;5543;51.734;8.744;2023-04-01T07:39:37;10.30;99.90
10980;DHT22;5543;51.734;8.744;2023-04-01T07:42:13;10.30;99.90
10980;DHT22;5543;51.734;8.744;2023-04-01T07:44:54;10.40;99.90
10980;DHT22;5543;51.734;8.744;2023-04-01T07:47:35;10.50;99.90
10980;DHT22;5543;51.734;8.744;2023-04-01T07:50:13;10.60;99.90
10980;DHT22;5543;51.734;8.744;2023-04-01T07:52:53;10.60;99.90
10980;DHT22;5543;51.734;8.744;2023-04-01T07:55:30;10.60;99.90
10980;DHT22;5543;51.734;8.744;2023-04-01T07:58:07;10.70;99.90
10980;DHT22;5543;51.734;8.744;2023-04-01T08:00:42;10.60;99.90
10980;DHT22;5543;51.734;8.744;2023-04-01T08:03:33;10.70;99.90
10980;DHT22;5543;51.734;8.744;2023-04-01T08:06:08;10.70;99.90
10980;DHT22;5543;51.734;8.744;2023-04-01T08:08:49;10.80;99.90
10980;DHT22;5543;51.734;8.744;2023-04-01T08:11:32;10.80;99.90
10980;DHT22;5543;51.734;8.744;2023-04-01T08:14:15;10.80;99.90
10980;DHT22;5543;51.734;8.744;2023-04-01T08:16:49;10.80;99.90
10980;DHT22;5543;51.734;8.744;2023-04-01T08:19:30;10.80;99.90
10980;DHT22;5543;51.734;8.744;2023-04-01T08:22:03;10.90;99.90
10980;DHT22;5543;51.734;8.744;2023-04-01T08:24:37;11.00;99.90
10980;DHT22;5543;51.734;8.744;2023-04-01T08:27:20;11.00;99.90
10980;DHT22;5543;51.734;8.744;2023-04-01T08:29:52;11.00;99.90
10980;DHT22;5543;51.734;8.744;2023-04-01T08:32:25;11.10;99.90
10980;DHT22;5543;51.734;8.744;2023-04-01T08:35:01;11.20;99.90
10980;DHT22;5543;51.734;8.744;2023-04-01T08:37:32;11.20;99.90
10980;DHT22;5543;51.734;8.744;2023-04-01T08:40:19;11.30;99.90
10980;DHT22;5543;51.734;8.744;2023-04-01T08:43:03;11.30;99.90
10980;DHT22;5543;51.734;8.744;2023-04-01T08:45:49;11.30;99.90
10980;DHT22;5543;51.734;8.744;2023-04-01T08:48:40;11.30;99.90
10980;DHT22;5543;51.734;8.744;2023-04-01T08:51:48;11.40;99.90
10980;DHT22;5543;51.734;8.744;2023-04-01T08:54:31;11.50;99.90
10980;DHT22;5543;51.734;8.744;2023-04-01T08:57:06;11.50;99.90
10980;DHT22;5543;51.734;8.744;2023-04-01T08:59:51;11.60;99.90
10980;DHT22;5543;51.734;8.744;2023-04-01T09:02:46;11.60;99.90
10980;DHT22;5543;51.734;8.744;2023-04-01T09:05:53;11.80;99.90
10980;DHT22;5543;51.734;8.744;2023-04-01T09:08:40;11.90;99.90
10980;DHT22;5543;51.734;8.744;2023-04-01T09:11:20;12.10;99.90
10980;DHT22;5543;51.734;8.744;2023-04-01T09:17:30;12.30;99.90
10980;DHT22;5543;51.734;8.744;2023-04-01T09:23:15;12.40;99.90
10980;DHT22;5543;51.734;8.744;2023-04-01T09:25:58;12.40;99.90
10980;DHT22;5543;51.734;8.744;2023-04-01T09:28:41;12.50;99.90
10980;DHT22;5543;51.734;8.744;2023-04-01T09:31:26;12.60;99.90
10980;DHT22;5543;51.734;8.744;2023-04-01T09:34:19;12.60;99.90
10980;DHT22;5543;51.734;8.744;2023-04-01T09:36:59;12.80;99.90
10980;DHT22;5543;51.734;8.744;2023-04-01T09:39:36;12.50;99.90
10980;DHT22;5543;51.734;8.744;2023-04-01T09:42:21;12.50;99.90
10980;DHT22;5543;51.734;8.744;2023-04-01T09:44:58;12.50;99.90
10980;DHT22;5543;51.734;8.744;2023-04-01T09:47:39;12.40;99.90
10980;DHT22;5543;51.734;8.744;2023-04-01T09:50:34;12.50;99.90
10980;DHT22;5543;51.734;8.744;2023-04-01T09:53:22;12.30;99.90
10980;DHT22;5543;51.734;8.744;2023-04-01T09:56:38;12.40;99.90
10980;DHT22;5543;51.734;8.744;2023-04-01T10:02:41;12.70;99.90
10980;DHT22;5543;51.734;8.744;2023-04-01T10:05:54;12.70;99.90
10980;DHT22;5543;51.734;8.744;2023-04-01T10:11:52;12.70;99.90
10980;DHT22;5543;51.734;8.744;2023-04-01T10:14:52;12.40;99.90
10980;DHT22;5543;51.734;8.744;2023-04-01T10:17:55;12.00;99.90
10980;DHT22;5543;51.734;8.744;2023-04-01T10:21:01;11.90;99.90
10980;DHT22;5543;51.734;8.744;2023-04-01T10:24:12;11.90;99.90
10980;DHT22;5543;51.734;8.744;2023-04-01T10:27:10;12.00;99.90
10980;DHT22;5543;51.734;8.744;2023-04-01T10:30:13;11.90;99.90
10980;DHT22;5543;51.734;8.744;2023-04-01T10:36:25;12.10;99.90
10980;DHT22;5543;51.734;8.744;2023-04-01T10:39:20;12.20;99.90
10980;DHT22;5543;51.734;8.744;2023-04-01T10:42:32;12.30;99.90
10980;DHT22;5543;51.734;8.744;2023-04-01T10:51:14;11.90;99.90
10980;DHT22;5543;51.734;8.744;2023-04-01T10:54:06;12.20;99.90
10980;DHT22;5543;51.734;8.744;2023-04-01T10:56:40;12.20;99.90
10980;DHT22;5543;51.734;8.744;2023-04-01T10:59:27;12.30;99.90
10980;DHT22;5543;51.734;8.744;2023-04-01T11:02:31;12.30;99.90
10980;DHT22;5543;51.734;8.744;2023-04-01T11:08:51;12.20;99.90
10980;DHT22;5543;51.734;8.744;2023-04-01T11:24:11;11.40;99.90
10980;DHT22;5543;51.734;8.744;2023-04-01T11:26:52;11.40;99.90
10980;DHT22;5543;51.734;8.744;2023-04-01T11:32:46;11.20;99.90
10980;DHT22;5543;51.734;8.744;2023-04-01T11:35:39;11.30;99.90
10980;DHT22;5543;51.734;8.744;2023-04-01T11:38:26;11.40;99.90
10980;DHT22;5543;51.734;8.744;2023-04-01T11:41:07;11.60;99.90
10980;DHT22;5543;51.734;8.744;2023-04-01T11:43:42;11.50;99.90
10980;DHT22;5543;51.734;8.744;2023-04-01T11:46:19;11.70;99.90
10980;DHT22;5543;51.734;8.744;2023-04-01T11:49:00;11.70;99.90
10980;DHT22;5543;51.734;8.744;2023-04-01T11:51:54;11.70;99.90
10980;DHT22;5543;51.734;8.744;2023-04-01T11:54:37;11.70;99.90
10980;DHT22;5543;51.734;8.744;2023-04-01T11:57:34;11.90;99.90
10980;DHT22;5543;51.734;8.744;2023-04-01T12:00:18;12.00;99.90
10980;DHT22;5543;51.734;8.744;2023-04-01T12:03:01;12.10;99.90
10980;DHT22;5543;51.734;8.744;2023-04-01T12:05:43;12.20;99.90
10980;DHT22;5543;51.734;8.744;2023-04-01T12:08:24;12.40;99.90
10980;DHT22;5543;51.734;8.744;2023-04-01T12:11:00;12.40;99.90
10980;DHT22;5543;51.734;8.744;2023-04-01T12:13:39;12.30;99.90
10980;DHT22;5543;51.734;8.744;2023-04-01T12:19:14;12.30;99.90
10980;DHT22;5543;51.734;8.744;2023-04-01T12:21:55;12.20;99.90
10980;DHT22;5543;51.734;8.744;2023-04-01T12:24:45;12.20;99.90
10980;DHT22;5543;51.734;8.744;2023-04-01T12:27:23;12.10;99.90
10980;DHT22;5543;51.734;8.744;2023-04-01T12:30:13;12.00;99.90
10980;DHT22;5543;51.734;8.744;2023-04-01T12:32:47;12.00;99.90
10980;DHT22;5543;51.734;8.744;2023-04-01T12:35:23;12.00;99.90
10980;DHT22;5543;51.734;8.744;2023-04-01T12:41:02;12.00;99.90
10980;DHT22;5543;51.734;8.744;2023-04-01T12:46:57;12.20;99.90
10980;DHT22;5543;51.734;8.744;2023-04-01T12:49:39;12.20;99.90
10980;DHT22;5543;51.734;8.744;2023-04-01T12:52:14;12.20;99.90
10980;DHT22;5543;51.734;8.744;2023-04-01T12:58:31;12.30;99.90
10980;DHT22;5543;51.734;8.744;2023-04-01T13:01:22;12.40;99.90
10980;DHT22;5543;51.734;8.744;2023-04-01T13:04:31;12.20;99.90
10980;DHT22;5543;51.734;8.744;2023-04-01T13:07:33;12.30;99.90
10980;DHT22;5543;51.734;8.744;2023-04-01T13:10:12;12.60;99.90
10980;DHT22;5543;51.734;8.744;2023-04-01T13:15:51;12.60;99.90
10980;DHT22;5543;51.734;8.744;2023-04-01T13:18:30;12.70;99.90
10980;DHT22;5543;51.734;8.744;2023-04-01T13:21:08;12.60;99.90
10980;DHT22;5543;51.734;8.744;2023-04-01T13:23:52;12.50;99.90
10980;DHT22;5543;51.734;8.744;2023-04-01T13:26:29;12.50;99.90
10980;DHT22;5543;51.734;8.744;2023-04-01T13:29:06;12.60;99.90
10980;DHT22;5543;51.734;8.744;2023-04-01T13:31:50;12.80;99.90
10980;DHT22;5543;51.734;8.744;2023-04-01T13:34:31;12.90;99.90
10980;DHT22;5543;51.734;8.744;2023-04-01T13:40:27;13.10;99.90
10980;DHT22;5543;51.734;8.744;2023-04-01T13:43:02;13.50;99.90
10980;DHT22;5543;51.734;8.744;2023-04-01T13:45:42;13.70;99.90
10980;DHT22;5543;51.734;8.744;2023-04-01T13:57:39;14.30;99.90
10980;DHT22;5543;51.734;8.744;2023-04-01T14:00:25;14.20;99.90
10980;DHT22;5543;51.734;8.744;2023-04-01T14:03:26;14.30;99.90
10980;DHT22;5543;51.734;8.744;2023-04-01T14:06:14;14.10;99.90
10980;DHT22;5543;51.734;8.744;2023-04-01T14:09:03;14.00;99.90
10980;DHT22;5543;51.734;8.744;2023-04-01T14:11:48;13.90;99.90
10980;DHT22;5543;51.734;8.744;2023-04-01T14:14:29;14.10;99.90
10980;DHT22;5543;51.734;8.744;2023-04-01T14:17:30;14.10;99.90
10980;DHT22;5543;51.734;8.744;2023-04-01T14:23:23;13.70;99.90
10980;DHT22;5543;51.734;8.744;2023-04-01T14:26:07;13.10;99.90
10980;DHT22;5543;51.734;8.744;2023-04-01T14:28:42;13.20;99.90
10980;DHT22;5543;51.734;8.744;2023-04-01T14:31:27;13.00;99.90
10980;DHT22;5543;51.734;8.744;2023-04-01T14:34:06;12.90;99.90
10980;DHT22;5543;51.734;8.744;2023-04-01T14:36:48;12.60;99.90
10980;DHT22;5543;51.734;8.744;2023-04-01T14:39:38;12.20;99.90
10980;DHT22;5543;51.734;8.744;2023-04-01T14:42:24;12.50;99.90
10980;DHT22;5543;51.734;8.744;2023-04-01T14:45:25;12.50;99.90
10980;DHT22;5543;51.734;8.744;2023-04-01T14:48:03;12.50;99.90
10980;DHT22;5543;51.734;8.744;2023-04-01T14:50:41;12.50;99.90
10980;DHT22;5543;51.734;8.744;2023-04-01T14:53:16;12.30;99.90
10980;DHT22;5543;51.734;8.744;2023-04-01T14:55:53;12.40;99.90
10980;DHT22;5543;51.734;8.744;2023-04-01T14:58:40;12.10;99.90
10980;DHT22;5543;51.734;8.744;2023-04-01T15:01:30;11.80;99.90
10980;DHT22;5543;51.734;8.744;2023-04-01T15:04:09;11.90;99.90
10980;DHT22;5543;51.734;8.744;2023-04-01T15:07:00;11.80;99.90
10980;DHT22;5543;51.734;8.744;2023-04-01T15:09:36;11.80;99.90
10980;DHT22;5543;51.734;8.744;2023-04-01T15:12:18;11.80;99.90
10980;DHT22;5543;51.734;8.744;2023-04-01T15:18:03;11.70;99.90
10980;DHT22;5543;51.734;8.744;2023-04-01T15:20:51;11.60;99.90
10980;DHT22;5543;51.734;8.744;2023-04-01T15:23:31;11.60;99.90
10980;DHT22;5543;51.734;8.744;2023-04-01T15:26:30;11.60;99.90
10980;DHT22;5543;51.734;8.744;2023-04-01T15:29:11;11.60;99.90
10980;DHT22;5543;51.734;8.744;2023-04-01T15:31:55;11.60;99.90
10980;DHT22;5543;51.734;8.744;2023-04-01T15:34:35;11.60;99.90
10980;DHT22;5543;51.734;8.744;2023-04-01T15:37:10;11.60;99.90
10980;DHT22;5543;51.734;8.744;2023-04-01T15:39:51;11.60;99.90
10980;DHT22;5543;51.734;8.744;2023-04-01T15:42:31;11.70;99.90
10980;DHT22;5543;51.734;8.744;2023-04-01T15:45:08;11.80;99.90
10980;DHT22;5543;51.734;8.744;2023-04-01T15:47:44;11.90;99.90
10980;DHT22;5543;51.734;8.744;2023-04-01T15:50:45;12.00;99.90
10980;DHT22;5543;51.734;8.744;2023-04-01T15:53:24;12.00;99.90
10980;DHT22;5543;51.734;8.744;2023-04-01T15:55:59;12.00;99.90
10980;DHT22;5543;51.734;8.744;2023-04-01T15:58:45;12.10;99.90
10980;DHT22;5543;51.734;8.744;2023-04-01T16:01:23;11.90;99.90
10980;DHT22;5543;51.734;8.744;2023-04-01T16:03:57;11.70;99.90
10980;DHT22;5543;51.734;8.744;2023-04-01T16:06:49;11.70;99.90
10980;DHT22;5543;51.734;8.744;2023-04-01T16:09:42;11.60;99.90
10980;DHT22;5543;51.734;8.744;2023-04-01T16:12:18;11.60;99.90
10980;DHT22;5543;51.734;8.744;2023-04-01T16:14:58;11.50;99.90
10980;DHT22;5543;51.734;8.744;2023-04-01T16:18:05;11.50;99.90
10980;DHT22;5543;51.734;8.744;2023-04-01T16:20:46;11.40;99.90
10980;DHT22;5543;51.734;8.744;2023-04-01T16:23:24;11.40;99.90
10980;DHT22;5543;51.734;8.744;2023-04-01T16:26:03;11.30;99.90
10980;DHT22;5543;51.734;8.744;2023-04-01T16:28:38;11.30;99.90
10980;DHT22;5543;51.734;8.744;2023-04-01T16:31:12;11.30;99.90
10980;DHT22;5543;51.734;8.744;2023-04-01T16:33:47;11.40;99.90
10980;DHT22;5543;51.734;8.744;2023-04-01T16:36:24;11.30;99.90
10980;DHT22;5543;51.734;8.744;2023-04-01T16:42:09;11.30;99.90
10980;DHT22;5543;51.734;8.744;2023-04-01T16:44:48;11.30;99.90
10980;DHT22;5543;51.734;8.744;2023-04-01T16:47:20;11.20;99.90
10980;DHT22;5543;51.734;8.744;2023-04-01T16:49:52;11.20;99.90
10980;DHT22;5543;51.734;8.744;2023-04-01T16:52:43;11.20;99.90
10980;DHT22;5543;51.734;8.744;2023-04-01T16:55:18;11.10;99.90
10980;DHT22;5543;51.734;8.744;2023-04-01T16:57:50;11.10;99.90
10980;DHT22;5543;51.734;8.744;2023-04-01T17:00:26;11.10;99.90
10980;DHT22;5543;51.734;8.744;2023-04-01T17:03:13;11.10;99.90
10980;DHT22;5543;51.734;8.744;2023-04-01T17:05:55;11.00;99.90
10980;DHT22;5543;51.734;8.744;2023-04-01T17:08:38;10.90;99.90
10980;DHT22;5543;51.734;8.744;2023-04-01T17:11:13;10.80;99.90
10980;DHT22;5543;51.734;8.744;2023-04-01T17:13:49;10.80;99.90
10980;DHT22;5543;51.734;8.744;2023-04-01T17:16:52;10.80;99.90
10980;DHT22;5543;51.734;8.744;2023-04-01T17:19:38;10.80;99.90
10980;DHT22;5543;51.734;8.744;2023-04-01T17:22:21;10.70;99.90
10980;DHT22;5543;51.734;8.744;2023-04-01T17:25:04;10.70;99.90
10980;DHT22;5543;51.734;8.744;2023-04-01T17:27:47;10.60;99.90
10980;DHT22;5543;51.734;8.744;2023-04-01T17:30:24;10.60;99.90
10980;DHT22;5543;51.734;8.744;2023-04-01T17:35:54;10.60;99.90
10980;DHT22;5543;51.734;8.744;2023-04-01T17:38:49;10.60;99.90
10980;DHT22;5543;51.734;8.744;2023-04-01T17:41:31;10.60;99.90
10980;DHT22;5543;51.734;8.744;2023-04-01T17:44:17;10.50;99.90
10980;DHT22;5543;51.734;8.744;2023-04-01T17:47:07;10.50;99.90
10980;DHT22;5543;51.734;8.744;2023-04-01T17:49:44;10.40;99.90
10980;DHT22;5543;51.734;8.744;2023-04-01T17:52:19;10.40;99.90
10980;DHT22;5543;51.734;8.744;2023-04-01T17:54:55;10.30;99.90
10980;DHT22;5543;51.734;8.744;2023-04-01T17:57:34;10.30;99.90
10980;DHT22;5543;51.734;8.744;2023-04-01T18:00:19;10.30;99.90
10980;DHT22;5543;51.734;8.744;2023-04-01T18:03:00;10.30;99.90
10980;DHT22;5543;51.734;8.744;2023-04-01T18:05:57;10.30;99.90
10980;DHT22;5543;51.734;8.744;2023-04-01T18:08:47;10.30;99.90
10980;DHT22;5543;51.734;8.744;2023-04-01T18:11:25;10.20;99.90
10980;DHT22;5543;51.734;8.744;2023-04-01T18:16:55;10.30;99.90
10980;DHT22;5543;51.734;8.744;2023-04-01T18:19:32;10.30;99.90
10980;DHT22;5543;51.734;8.744;2023-04-01T18:22:15;10.30;99.90
10980;DHT22;5543;51.734;8.744;2023-04-01T18:24:47;10.30;99.90
10980;DHT22;5543;51.734;8.744;2023-04-01T18:27:21;10.30;99.90
10980;DHT22;5543;51.734;8.744;2023-04-01T18:29:54;10.20;99.90
10980;DHT22;5543;51.734;8.744;2023-04-01T18:32:32;10.20;99.90
10980;DHT22;5543;51.734;8.744;2023-04-01T18:35:17;10.20;99.90
10980;DHT22;5543;51.734;8.744;2023-04-01T18:37:53;10.20;99.90